createdAt,value
2022-08-12T00:03:26.853Z,16.48
2022-08-12T00:09:09.587Z,16.44
2022-08-12T00:14:49.732Z,16.45
2022-08-12T00:20:32.130Z,16.51
2022-08-12T00:26:23.597Z,16.50
2022-08-12T00:32:00.467Z,16.37
2022-08-12T00:37:42.745Z,16.39
2022-08-12T00:43:06.264Z,16.32
2022-08-12T00:48:30.225Z,16.31
2022-08-12T00:53:54.136Z,16.26
2022-08-12T00:59:18.612Z,16.24
2022-08-12T01:05:00.522Z,16.08
2022-08-12T01:10:42.353Z,16.04
2022-08-12T01:16:08.053Z,16.00
2022-08-12T01:21:59.297Z,16.02
2022-08-12T01:27:23.766Z,15.88
2022-08-12T01:32:48.113Z,15.71
2022-08-12T01:38:19.322Z,15.52
2022-08-12T01:43:45.280Z,15.36
2022-08-12T01:49:31.021Z,15.14
2022-08-12T01:54:56.388Z,15.09
2022-08-12T02:00:35.533Z,15.04
2022-08-12T02:06:20.272Z,14.98
2022-08-12T02:11:50.697Z,14.93
2022-08-12T02:17:54.704Z,14.94
2022-08-12T02:23:06.749Z,14.94
2022-08-12T02:28:29.457Z,14.84
2022-08-12T02:33:53.084Z,14.75
2022-08-12T02:39:17.972Z,14.71
2022-08-12T02:44:44.640Z,14.62
2022-08-12T02:50:09.990Z,14.54
2022-08-12T02:55:40.193Z,14.46
2022-08-12T03:01:04.031Z,14.47
2022-08-12T03:06:30.782Z,14.50
2022-08-12T03:12:08.449Z,14.51
2022-08-12T03:17:45.478Z,14.40
2022-08-12T03:23:29.199Z,14.39
2022-08-12T03:28:58.382Z,14.42
2022-08-12T03:34:30.179Z,14.50
2022-08-12T03:39:54.131Z,14.43
2022-08-12T03:45:53.767Z,14.51
2022-08-12T03:51:36.058Z,14.53
2022-08-12T03:57:16.309Z,14.47
2022-08-12T04:02:39.251Z,14.60
2022-08-12T04:08:03.744Z,14.73
2022-08-12T04:13:29.884Z,14.77
2022-08-12T04:18:53.406Z,14.89
2022-08-12T04:24:18.492Z,15.10
2022-08-12T04:30:20.976Z,15.22
2022-08-12T04:35:06.678Z,15.39
2022-08-12T04:40:31.491Z,15.50
2022-08-12T04:45:55.491Z,15.62
2022-08-12T04:51:17.963Z,15.70
2022-08-12T04:56:40.749Z,15.85
2022-08-12T05:02:05.356Z,15.93
2022-08-12T05:07:29.322Z,16.01
2022-08-12T05:13:04.959Z,16.05
2022-08-12T05:18:29.295Z,16.18
2022-08-12T05:23:55.390Z,16.43
2022-08-12T05:30:06.861Z,16.63
2022-08-12T05:34:42.585Z,16.81
2022-08-12T05:40:10.733Z,17.00
2022-08-12T05:45:29.277Z,17.22
2022-08-12T05:50:54.262Z,17.50
2022-08-12T05:56:36.547Z,17.87
2022-08-12T06:02:12.548Z,17.94
2022-08-12T06:07:59.229Z,18.03
2022-08-12T06:12:50.468Z,18.36
2022-08-12T06:18:19.476Z,18.84
2022-08-12T06:23:43.029Z,19.31
2022-08-12T06:29:05.993Z,19.51
2022-08-12T06:35:22.508Z,19.65
2022-08-12T06:39:53.740Z,19.76
2022-08-12T06:45:16.695Z,20.04
2022-08-12T06:50:40.160Z,20.24
2022-08-12T06:56:03.360Z,20.39
2022-08-12T07:01:27.994Z,20.62
2022-08-12T07:06:50.308Z,20.83
2022-08-12T07:12:14.225Z,21.12
2022-08-12T07:17:38.269Z,21.22
2022-08-12T07:23:01.096Z,21.53
2022-08-12T07:28:30.187Z,21.92
2022-08-12T07:33:55.711Z,22.17
2022-08-12T07:39:19.215Z,22.05
2022-08-12T07:44:41.520Z,21.84
2022-08-12T07:50:06.836Z,22.09
2022-08-12T07:55:30.471Z,22.48
2022-08-12T08:00:59.661Z,22.90
2022-08-12T08:06:25.061Z,23.13
2022-08-12T08:12:05.474Z,23.14
2022-08-12T08:17:28.005Z,23.47
2022-08-12T08:22:51.615Z,23.72
2022-08-12T08:28:22.295Z,23.85
2022-08-12T08:34:09.390Z,23.89
2022-08-12T08:39:09.117Z,24.08
2022-08-12T08:44:31.559Z,24.20
2022-08-12T08:49:56.380Z,24.60
2022-08-12T08:55:27.377Z,24.76
2022-08-12T09:00:44.136Z,25.02
2022-08-12T09:06:09.520Z,25.87
2022-08-12T09:11:52.525Z,26.44
2022-08-12T09:17:21.490Z,26.40
2022-08-12T09:22:49.166Z,26.19
2022-08-12T09:34:25.722Z,26.49
2022-08-12T09:39:01.854Z,26.37
2022-08-12T09:44:43.623Z,26.84
2022-08-12T09:50:06.465Z,26.56
2022-08-12T09:56:05.512Z,26.79
2022-08-12T10:00:57.672Z,26.70
2022-08-12T10:06:31.426Z,28.08
2022-08-12T10:12:11.984Z,28.03
2022-08-12T10:17:31.980Z,28.86
2022-08-12T10:23:05.857Z,27.72
2022-08-12T10:29:01.689Z,28.13
2022-08-12T10:34:26.038Z,28.68
2022-08-12T10:40:01.091Z,29.15
2022-08-12T10:45:05.082Z,29.79
2022-08-12T10:50:56.153Z,29.68
2022-08-12T10:55:56.415Z,28.84
2022-08-12T11:01:49.332Z,28.87
2022-08-12T20:43:10.570Z,22.38
2022-08-12T20:48:35.547Z,22.19
2022-08-12T20:54:00.733Z,22.14
2022-08-12T20:59:31.628Z,22.18
2022-08-12T21:05:19.521Z,22.14
2022-08-12T21:10:38.575Z,22.20
2022-08-12T21:16:02.453Z,22.12
2022-08-12T21:21:24.627Z,22.11
2022-08-12T21:26:53.469Z,22.04
2022-08-12T21:32:37.136Z,22.00
2022-08-12T21:37:41.926Z,21.98
2022-08-12T21:43:05.959Z,21.90
2022-08-12T21:48:28.321Z,21.88
2022-08-12T21:54:07.283Z,21.85
2022-08-12T21:59:14.787Z,21.79
2022-08-12T22:04:55.348Z,21.60
2022-08-12T22:10:28.301Z,21.55
2022-08-12T22:15:45.755Z,21.49
2022-08-12T22:21:11.360Z,21.43
2022-08-12T22:26:37.306Z,21.38
2022-08-12T22:31:58.472Z,21.45
2022-08-12T22:37:20.759Z,21.38
2022-08-12T22:43:05.673Z,21.34
2022-08-12T22:48:27.287Z,21.38
2022-08-12T22:53:51.580Z,21.30
2022-08-12T22:59:14.573Z,21.26
2022-08-12T23:04:37.674Z,21.25
2022-08-12T23:10:00.305Z,21.21
2022-08-12T23:15:24.042Z,21.17
2022-08-12T23:20:46.809Z,21.20
2022-08-12T23:26:11.323Z,21.13
2022-08-12T23:32:02.715Z,20.96
2022-08-12T23:37:00.636Z,20.90
2022-08-12T23:42:31.015Z,20.89
2022-08-12T23:47:59.108Z,20.86
2022-08-12T23:53:26.882Z,20.83
2022-08-12T23:58:53.039Z,20.80
